GCLP/LPA METAR and TAF weather

Enter ICAO airport designator
Station Type Date Time Source
GCLP METAR 2020/09/22 20:30 UTC NOAA

GCLP 222030Z 01020KT 9999 FEW020 25/20 Q1015 NOSIG


Station Type Date Time Source
GCLP Decoded METAR 2020/09/22 20:30 UTC NOAA

Gran Canaria - Canary Islands, Spain (GCLP) 27-56N 015-23W 47M
Sep 22, 2020 - 04:30 PM EDT / 2020.09.22 2030 UTC
Wind: from the N (010 degrees) at 23 MPH (20 KT):0
Visibility: greater than 7 mile(s):0
Sky conditions: mostly clear
Temperature: 77 F (25 C)
Dew Point: 68 F (20 C)
Relative Humidity: 73%
Pressure (altimeter): 29.97 in. Hg (1015 hPa)
ob: GCLP 222030Z 01020KT 9999 FEW020 25/20 Q1015 NOSIG
cycle: 20

Station Type Date Time Source
GCLP TAF 2020/09/22 21:27 UTC NOAA

TAF GCLP 222000Z 2221/2321 01015KT CAVOK TX30/2315Z TN23/2306Z

Example: see airport list